Kinney, Minnesota
Current Conditions -  °F | °C
As of 11:53 AM on Saturday 25 Oct 2014 (Local Time) from KHIB Reporting Station
Clear Clear  
Wind Chill: 54°   Ceiling: Unl
Heat Index: 54°   Visibility: 10mi
Dew Point: 30°   Wind: 15mph
Humidity: 40%   Direction: 290°WNW
Pressure: 29.92"   Gusts: 29mph
Location:  47.51°N, 92.73°W
Report Text: KHIB 251653Z AUTO 29013G25KT 10SM CLR 12/M01 A2992 RMK AO2 PK WND 30028/1617 SLP136 T01221011
Loading
Personal Weather Stations






























Interactive Weather Map
Tropical Storm Tracking
New forecast layout! Learn more

10-Day Weather Forecast

Advertisements
Track Severe Weather on mobile